Aviation Digital Data Service (ADDS)

Output produced by METARs form (1109 UTC 17 June 2019)
found at http://www.aviationweather.gov/metar/data/
 
METAR text: UTSB 171030Z 36006KT 310V040 CAVOK 35/06 Q1007 R01/CLRD70 NOSIG
Conditions at: UTSB (BUKHARA , UZ) observed 1030 UTC 17 June 2019
Temperature: 35.0°C (95°F)
Dewpoint: 6.0°C (43°F) [RH = 17%]
Pressure (altimeter): 29.73 inches Hg (1007.0 mb)
Winds: from the N (360 degrees) at 7 MPH (6 knots; 3.1 m/s)
Visibility: 6 or more miles (10+ km)
Ceiling: ceiling and visibility are OK
Clouds: unknown
Weather: no significant weather observed at this time

METAR text: UTSB 171000Z 33006KT CAVOK 34/06 Q1007 R01/CLRD70 NOSIG
Conditions at: UTSB (BUKHARA , UZ) observed 1000 UTC 17 June 2019
Temperature: 34.0°C (93°F)
Dewpoint: 6.0°C (43°F) [RH = 18%]
Pressure (altimeter): 29.73 inches Hg (1007.0 mb)
Winds: from the NNW (330 degrees) at 7 MPH (6 knots; 3.1 m/s)
Visibility: 6 or more miles (10+ km)
Ceiling: ceiling and visibility are OK
Clouds: unknown
Weather: no significant weather observed at this time

METAR text: UTSB 170930Z 31006KT 250V330 CAVOK 34/06 Q1007 R01/CLRD70 NOSIG
Conditions at: UTSB (BUKHARA , UZ) observed 0930 UTC 17 June 2019
Temperature: 34.0°C (93°F)
Dewpoint: 6.0°C (43°F) [RH = 18%]
Pressure (altimeter): 29.73 inches Hg (1007.0 mb)
Winds: from the NW (310 degrees) at 7 MPH (6 knots; 3.1 m/s)
Visibility: 6 or more miles (10+ km)
Ceiling: ceiling and visibility are OK
Clouds: unknown
Weather: no significant weather observed at this time

METAR text: UTSB 170900Z 30006KT 250V340 CAVOK 34/06 Q1007 R01/CLRD70 NOSIG
Conditions at: UTSB (BUKHARA , UZ) observed 0900 UTC 17 June 2019
Temperature: 34.0°C (93°F)
Dewpoint: 6.0°C (43°F) [RH = 18%]
Pressure (altimeter): 29.73 inches Hg (1007.0 mb)
Winds: from the WNW (300 degrees) at 7 MPH (6 knots; 3.1 m/s)
Visibility: 6 or more miles (10+ km)
Ceiling: ceiling and visibility are OK
Clouds: unknown
Weather: no significant weather observed at this time

METAR text: UTSB 170830Z 01004KT CAVOK 34/06 Q1007 R01/CLRD70 NOSIG
Conditions at: UTSB (BUKHARA , UZ) observed 0830 UTC 17 June 2019
Temperature: 34.0°C (93°F)
Dewpoint: 6.0°C (43°F) [RH = 18%]
Pressure (altimeter): 29.73 inches Hg (1007.0 mb)
Winds: from the N (10 degrees) at 5 MPH (4 knots; 2.1 m/s)
Visibility: 6 or more miles (10+ km)
Ceiling: ceiling and visibility are OK
Clouds: unknown
Weather: no significant weather observed at this time

METAR text: UTSB 170800Z 24004KT CAVOK 34/06 Q1008 R01/CLRD70 NOSIG
Conditions at: UTSB (BUKHARA , UZ) observed 0800 UTC 17 June 2019
Temperature: 34.0°C (93°F)
Dewpoint: 6.0°C (43°F) [RH = 18%]
Pressure (altimeter): 29.76 inches Hg (1008.0 mb)
Winds: from the WSW (240 degrees) at 5 MPH (4 knots; 2.1 m/s)
Visibility: 6 or more miles (10+ km)
Ceiling: ceiling and visibility are OK
Clouds: unknown
Weather: no significant weather observed at this time

METAR text: UTSB 170730Z 35004KT CAVOK 32/05 Q1008 R01/CLRD70 NOSIG
Conditions at: UTSB (BUKHARA , UZ) observed 0730 UTC 17 June 2019
Temperature: 32.0°C (90°F)
Dewpoint: 5.0°C (41°F) [RH = 18%]
Pressure (altimeter): 29.76 inches Hg (1008.0 mb)
Winds: from the N (350 degrees) at 5 MPH (4 knots; 2.1 m/s)
Visibility: 6 or more miles (10+ km)
Ceiling: ceiling and visibility are OK
Clouds: unknown
Weather: no significant weather observed at this time

METAR text: UTSB 170700Z 32004KT CAVOK 32/05 Q1008 R01/CLRD70 NOSIG
Conditions at: UTSB (BUKHARA , UZ) observed 0700 UTC 17 June 2019
Temperature: 32.0°C (90°F)
Dewpoint: 5.0°C (41°F) [RH = 18%]
Pressure (altimeter): 29.76 inches Hg (1008.0 mb)
Winds: from the NW (320 degrees) at 5 MPH (4 knots; 2.1 m/s)
Visibility: 6 or more miles (10+ km)
Ceiling: ceiling and visibility are OK
Clouds: unknown
Weather: no significant weather observed at this time

METAR text: UTSB 170630Z 33004KT 270V040 CAVOK 31/04 Q1008 R01/CLRD70 NOSIG
Conditions at: UTSB (BUKHARA , UZ) observed 0630 UTC 17 June 2019
Temperature: 31.0°C (88°F)
Dewpoint: 4.0°C (39°F) [RH = 18%]
Pressure (altimeter): 29.76 inches Hg (1008.0 mb)
Winds: from the NNW (330 degrees) at 5 MPH (4 knots; 2.1 m/s)
Visibility: 6 or more miles (10+ km)
Ceiling: ceiling and visibility are OK
Clouds: unknown
Weather: no significant weather observed at this time

METAR text: UTSB 170600Z 36004KT CAVOK 31/05 Q1008 R01/CLRD70 NOSIG
Conditions at: UTSB (BUKHARA , UZ) observed 0600 UTC 17 June 2019
Temperature: 31.0°C (88°F)
Dewpoint: 5.0°C (41°F) [RH = 19%]
Pressure (altimeter): 29.76 inches Hg (1008.0 mb)
Winds: from the N (360 degrees) at 5 MPH (4 knots; 2.1 m/s)
Visibility: 6 or more miles (10+ km)
Ceiling: ceiling and visibility are OK
Clouds: unknown
Weather: no significant weather observed at this time

METAR text: UTSB 170530Z 35004KT 310V050 CAVOK 30/04 Q1008 R01/CLRD70 NOSIG
Conditions at: UTSB (BUKHARA , UZ) observed 0530 UTC 17 June 2019
Temperature: 30.0°C (86°F)
Dewpoint: 4.0°C (39°F) [RH = 19%]
Pressure (altimeter): 29.76 inches Hg (1008.0 mb)
Winds: from the N (350 degrees) at 5 MPH (4 knots; 2.1 m/s)
Visibility: 6 or more miles (10+ km)
Ceiling: ceiling and visibility are OK
Clouds: unknown
Weather: no significant weather observed at this time

METAR text: UTSB 170500Z 03006KT 320V080 CAVOK 29/07 Q1009 R01/CLRD70 NOSIG
Conditions at: UTSB (BUKHARA , UZ) observed 0500 UTC 17 June 2019
Temperature: 29.0°C (84°F)
Dewpoint: 7.0°C (45°F) [RH = 25%]
Pressure (altimeter): 29.79 inches Hg (1009.0 mb)
Winds: from the NNE (30 degrees) at 7 MPH (6 knots; 3.1 m/s)
Visibility: 6 or more miles (10+ km)
Ceiling: ceiling and visibility are OK
Clouds: unknown
Weather: no significant weather observed at this time

METAR text: UTSB 170430Z 01006KT 330V050 CAVOK 28/07 Q1009 R01/CLRD70 NOSIG
Conditions at: UTSB (BUKHARA , UZ) observed 0430 UTC 17 June 2019
Temperature: 28.0°C (82°F)
Dewpoint: 7.0°C (45°F) [RH = 27%]
Pressure (altimeter): 29.79 inches Hg (1009.0 mb)
Winds: from the N (10 degrees) at 7 MPH (6 knots; 3.1 m/s)
Visibility: 6 or more miles (10+ km)
Ceiling: ceiling and visibility are OK
Clouds: unknown
Weather: no significant weather observed at this time

METAR text: UTSB 170400Z 03008KT CAVOK 27/07 Q1009 R01/CLRD70 NOSIG
Conditions at: UTSB (BUKHARA , UZ) observed 0400 UTC 17 June 2019
Temperature: 27.0°C (81°F)
Dewpoint: 7.0°C (45°F) [RH = 28%]
Pressure (altimeter): 29.79 inches Hg (1009.0 mb)
Winds: from the NNE (30 degrees) at 9 MPH (8 knots; 4.1 m/s)
Visibility: 6 or more miles (10+ km)
Ceiling: ceiling and visibility are OK
Clouds: unknown
Weather: no significant weather observed at this time

METAR text: UTSB 170330Z 01008KT CAVOK 26/07 Q1009 R01/CLRD70 NOSIG
Conditions at: UTSB (BUKHARA , UZ) observed 0330 UTC 17 June 2019
Temperature: 26.0°C (79°F)
Dewpoint: 7.0°C (45°F) [RH = 30%]
Pressure (altimeter): 29.79 inches Hg (1009.0 mb)
Winds: from the N (10 degrees) at 9 MPH (8 knots; 4.1 m/s)
Visibility: 6 or more miles (10+ km)
Ceiling: ceiling and visibility are OK
Clouds: unknown
Weather: no significant weather observed at this time

METAR text: UTSB 170300Z 01006KT CAVOK 24/07 Q1008 R01/CLRD70 NOSIG
Conditions at: UTSB (BUKHARA , UZ) observed 0300 UTC 17 June 2019
Temperature: 24.0°C (75°F)
Dewpoint: 7.0°C (45°F) [RH = 34%]
Pressure (altimeter): 29.76 inches Hg (1008.0 mb)
Winds: from the N (10 degrees) at 7 MPH (6 knots; 3.1 m/s)
Visibility: 6 or more miles (10+ km)
Ceiling: ceiling and visibility are OK
Clouds: unknown
Weather: no significant weather observed at this time

METAR text: UTSB 170230Z 01008KT CAVOK 23/06 Q1008 R01/CLRD70 NOSIG
Conditions at: UTSB (BUKHARA , UZ) observed 0230 UTC 17 June 2019
Temperature: 23.0°C (73°F)
Dewpoint: 6.0°C (43°F) [RH = 33%]
Pressure (altimeter): 29.76 inches Hg (1008.0 mb)
Winds: from the N (10 degrees) at 9 MPH (8 knots; 4.1 m/s)
Visibility: 6 or more miles (10+ km)
Ceiling: ceiling and visibility are OK
Clouds: unknown
Weather: no significant weather observed at this time

METAR text: UTSB 170200Z 36008KT CAVOK 22/07 Q1008 R01/CLRD70 NOSIG
Conditions at: UTSB (BUKHARA , UZ) observed 0200 UTC 17 June 2019
Temperature: 22.0°C (72°F)
Dewpoint: 7.0°C (45°F) [RH = 38%]
Pressure (altimeter): 29.76 inches Hg (1008.0 mb)
Winds: from the N (360 degrees) at 9 MPH (8 knots; 4.1 m/s)
Visibility: 6 or more miles (10+ km)
Ceiling: ceiling and visibility are OK
Clouds: unknown
Weather: no significant weather observed at this time

METAR text: UTSB 170130Z 35008KT CAVOK 20/06 Q1008 R01/CLRD70 NOSIG
Conditions at: UTSB (BUKHARA , UZ) observed 0130 UTC 17 June 2019
Temperature: 20.0°C (68°F)
Dewpoint: 6.0°C (43°F) [RH = 40%]
Pressure (altimeter): 29.76 inches Hg (1008.0 mb)
Winds: from the N (350 degrees) at 9 MPH (8 knots; 4.1 m/s)
Visibility: 6 or more miles (10+ km)
Ceiling: ceiling and visibility are OK
Clouds: unknown
Weather: no significant weather observed at this time

METAR text: UTSB 1701000Z 35008KT CAVOK 19/05 Q1008 R01/CLRD70 NOSIG
Conditions at: UTSB (BUKHARA , UZ) observed 0114 UTC 17 June 2019
Temperature: 19.0°C (66°F)
Dewpoint: 5.0°C (41°F) [RH = 40%]
Pressure (altimeter): 29.76 inches Hg (1008.0 mb)
Winds: missing
Visibility: 6 or more miles (10+ km)
Ceiling: ceiling and visibility are OK
Clouds: unknown
Weather: no significant weather observed at this time

METAR text: UTSB 1701000Z 35008KT CAVOK 19/05 Q1008 R01/CLRD70 NOSIG
Conditions at: UTSB (BUKHARA , UZ) observed 0112 UTC 17 June 2019
Temperature: 19.0°C (66°F)
Dewpoint: 5.0°C (41°F) [RH = 40%]
Pressure (altimeter): 29.76 inches Hg (1008.0 mb)
Winds: missing
Visibility: 6 or more miles (10+ km)
Ceiling: ceiling and visibility are OK
Clouds: unknown
Weather: no significant weather observed at this time

METAR text: UTSB 170100Z 35008KT CAVOK 19/05 Q1008 R01/CLRD70 NOSIG
Conditions at: UTSB (BUKHARA , UZ) observed 0100 UTC 17 June 2019
Temperature: 19.0°C (66°F)
Dewpoint: 5.0°C (41°F) [RH = 40%]
Pressure (altimeter): 29.76 inches Hg (1008.0 mb)
Winds: from the N (350 degrees) at 9 MPH (8 knots; 4.1 m/s)
Visibility: 6 or more miles (10+ km)
Ceiling: ceiling and visibility are OK
Clouds: unknown
Weather: no significant weather observed at this time

METAR text: UTSB 170030Z 34008KT CAVOK 19/05 Q1008 R01/CLRD70 NOSIG
Conditions at: UTSB (BUKHARA , UZ) observed 0030 UTC 17 June 2019
Temperature: 19.0°C (66°F)
Dewpoint: 5.0°C (41°F) [RH = 40%]
Pressure (altimeter): 29.76 inches Hg (1008.0 mb)
Winds: from the NNW (340 degrees) at 9 MPH (8 knots; 4.1 m/s)
Visibility: 6 or more miles (10+ km)
Ceiling: ceiling and visibility are OK
Clouds: unknown
Weather: no significant weather observed at this time

METAR text: UTSB 170000Z 35008KT CAVOK 19/04 Q1008 R01/CLRD70 NOSIG
Conditions at: UTSB (BUKHARA , UZ) observed 0000 UTC 17 June 2019
Temperature: 19.0°C (66°F)
Dewpoint: 4.0°C (39°F) [RH = 37%]
Pressure (altimeter): 29.76 inches Hg (1008.0 mb)
Winds: from the N (350 degrees) at 9 MPH (8 knots; 4.1 m/s)
Visibility: 6 or more miles (10+ km)
Ceiling: ceiling and visibility are OK
Clouds: unknown
Weather: no significant weather observed at this time

METAR text: UTSB 162330Z 34008KT CAVOK 20/03 Q1008 R01/CLRD70 NOSIG
Conditions at: UTSB (BUKHARA , UZ) observed 2330 UTC 16 June 2019
Temperature: 20.0°C (68°F)
Dewpoint: 3.0°C (37°F) [RH = 32%]
Pressure (altimeter): 29.76 inches Hg (1008.0 mb)
Winds: from the NNW (340 degrees) at 9 MPH (8 knots; 4.1 m/s)
Visibility: 6 or more miles (10+ km)
Ceiling: ceiling and visibility are OK
Clouds: unknown
Weather: no significant weather observed at this time

METAR text: UTSB 162300Z 34008KT CAVOK 20/03 Q1008 R01/CLRD70 NOSIG
Conditions at: UTSB (BUKHARA , UZ) observed 2300 UTC 16 June 2019
Temperature: 20.0°C (68°F)
Dewpoint: 3.0°C (37°F) [RH = 32%]
Pressure (altimeter): 29.76 inches Hg (1008.0 mb)
Winds: from the NNW (340 degrees) at 9 MPH (8 knots; 4.1 m/s)
Visibility: 6 or more miles (10+ km)
Ceiling: ceiling and visibility are OK
Clouds: unknown
Weather: no significant weather observed at this time

METAR text: UTSB 162230Z 34008KT CAVOK 20/02 Q1008 R01/CLRD70 NOSIG
Conditions at: UTSB (BUKHARA , UZ) observed 2230 UTC 16 June 2019
Temperature: 20.0°C (68°F)
Dewpoint: 2.0°C (36°F) [RH = 30%]
Pressure (altimeter): 29.76 inches Hg (1008.0 mb)
Winds: from the NNW (340 degrees) at 9 MPH (8 knots; 4.1 m/s)
Visibility: 6 or more miles (10+ km)
Ceiling: ceiling and visibility are OK
Clouds: unknown
Weather: no significant weather observed at this time

METAR text: UTSB 162200Z 34006KT CAVOK 20/03 Q1008 R01/CLRD70 NOSIG
Conditions at: UTSB (BUKHARA , UZ) observed 2200 UTC 16 June 2019
Temperature: 20.0°C (68°F)
Dewpoint: 3.0°C (37°F) [RH = 32%]
Pressure (altimeter): 29.76 inches Hg (1008.0 mb)
Winds: from the NNW (340 degrees) at 7 MPH (6 knots; 3.1 m/s)
Visibility: 6 or more miles (10+ km)
Ceiling: ceiling and visibility are OK
Clouds: unknown
Weather: no significant weather observed at this time

METAR text: UTSB 162130Z 34008KT CAVOK 21/03 Q1008 R01/CLRD70 NOSIG
Conditions at: UTSB (BUKHARA , UZ) observed 2130 UTC 16 June 2019
Temperature: 21.0°C (70°F)
Dewpoint: 3.0°C (37°F) [RH = 30%]
Pressure (altimeter): 29.76 inches Hg (1008.0 mb)
Winds: from the NNW (340 degrees) at 9 MPH (8 knots; 4.1 m/s)
Visibility: 6 or more miles (10+ km)
Ceiling: ceiling and visibility are OK
Clouds: unknown
Weather: no significant weather observed at this time

METAR text: UTSB 162100Z 35008KT CAVOK 22/02 Q1008 R01/CLRD70 NOSIG
Conditions at: UTSB (BUKHARA , UZ) observed 2100 UTC 16 June 2019
Temperature: 22.0°C (72°F)
Dewpoint: 2.0°C (36°F) [RH = 27%]
Pressure (altimeter): 29.76 inches Hg (1008.0 mb)
Winds: from the N (350 degrees) at 9 MPH (8 knots; 4.1 m/s)
Visibility: 6 or more miles (10+ km)
Ceiling: ceiling and visibility are OK
Clouds: unknown
Weather: no significant weather observed at this time

METAR text: UTSB 162030Z 01006KT CAVOK 22/01 Q1009 R01/CLRD70 NOSIG
Conditions at: UTSB (BUKHARA , UZ) observed 2030 UTC 16 June 2019
Temperature: 22.0°C (72°F)
Dewpoint: 1.0°C (34°F) [RH = 25%]
Pressure (altimeter): 29.79 inches Hg (1009.0 mb)
Winds: from the N (10 degrees) at 7 MPH (6 knots; 3.1 m/s)
Visibility: 6 or more miles (10+ km)
Ceiling: ceiling and visibility are OK
Clouds: unknown
Weather: no significant weather observed at this time

METAR text: UTSB 162000Z 01006KT CAVOK 23/01 Q1009 R01/CLRD70 NOSIG
Conditions at: UTSB (BUKHARA , UZ) observed 2000 UTC 16 June 2019
Temperature: 23.0°C (73°F)
Dewpoint: 1.0°C (34°F) [RH = 23%]
Pressure (altimeter): 29.79 inches Hg (1009.0 mb)
Winds: from the N (10 degrees) at 7 MPH (6 knots; 3.1 m/s)
Visibility: 6 or more miles (10+ km)
Ceiling: ceiling and visibility are OK
Clouds: unknown
Weather: no significant weather observed at this time

METAR text: UTSB 161930Z 36008KT CAVOK 23/02 Q1009 R01/CLRD70 NOSIG
Conditions at: UTSB (BUKHARA , UZ) observed 1930 UTC 16 June 2019
Temperature: 23.0°C (73°F)
Dewpoint: 2.0°C (36°F) [RH = 25%]
Pressure (altimeter): 29.79 inches Hg (1009.0 mb)
Winds: from the N (360 degrees) at 9 MPH (8 knots; 4.1 m/s)
Visibility: 6 or more miles (10+ km)
Ceiling: ceiling and visibility are OK
Clouds: unknown
Weather: no significant weather observed at this time

METAR text: UTSB 161900Z 36010KT CAVOK 23/02 Q1009 R01/CLRD70 NOSIG
Conditions at: UTSB (BUKHARA , UZ) observed 1900 UTC 16 June 2019
Temperature: 23.0°C (73°F)
Dewpoint: 2.0°C (36°F) [RH = 25%]
Pressure (altimeter): 29.79 inches Hg (1009.0 mb)
Winds: from the N (360 degrees) at 12 MPH (10 knots; 5.1 m/s)
Visibility: 6 or more miles (10+ km)
Ceiling: ceiling and visibility are OK
Clouds: unknown
Weather: no significant weather observed at this time

METAR text: UTSB 161830Z 36008KT CAVOK 23/02 Q1009 R01/CLRD70 NOSIG
Conditions at: UTSB (BUKHARA , UZ) observed 1830 UTC 16 June 2019
Temperature: 23.0°C (73°F)
Dewpoint: 2.0°C (36°F) [RH = 25%]
Pressure (altimeter): 29.79 inches Hg (1009.0 mb)
Winds: from the N (360 degrees) at 9 MPH (8 knots; 4.1 m/s)
Visibility: 6 or more miles (10+ km)
Ceiling: ceiling and visibility are OK
Clouds: unknown
Weather: no significant weather observed at this time

METAR text: UTSB 161800Z 01008KT CAVOK 24/02 Q1009 R01/CLRD70 NOSIG
Conditions at: UTSB (BUKHARA , UZ) observed 1800 UTC 16 June 2019
Temperature: 24.0°C (75°F)
Dewpoint: 2.0°C (36°F) [RH = 24%]
Pressure (altimeter): 29.79 inches Hg (1009.0 mb)
Winds: from the N (10 degrees) at 9 MPH (8 knots; 4.1 m/s)
Visibility: 6 or more miles (10+ km)
Ceiling: ceiling and visibility are OK
Clouds: unknown
Weather: no significant weather observed at this time

METAR text: UTSB 161730Z 36008KT CAVOK 24/03 Q1009 R01/CLRD70 NOSIG
Conditions at: UTSB (BUKHARA , UZ) observed 1730 UTC 16 June 2019
Temperature: 24.0°C (75°F)
Dewpoint: 3.0°C (37°F) [RH = 25%]
Pressure (altimeter): 29.79 inches Hg (1009.0 mb)
Winds: from the N (360 degrees) at 9 MPH (8 knots; 4.1 m/s)
Visibility: 6 or more miles (10+ km)
Ceiling: ceiling and visibility are OK
Clouds: unknown
Weather: no significant weather observed at this time

METAR text: UTSB 161700Z 01008KT CAVOK 26/03 Q1009 R01/CLRD70 NOSIG
Conditions at: UTSB (BUKHARA , UZ) observed 1700 UTC 16 June 2019
Temperature: 26.0°C (79°F)
Dewpoint: 3.0°C (37°F) [RH = 23%]
Pressure (altimeter): 29.79 inches Hg (1009.0 mb)
Winds: from the N (10 degrees) at 9 MPH (8 knots; 4.1 m/s)
Visibility: 6 or more miles (10+ km)
Ceiling: ceiling and visibility are OK
Clouds: unknown
Weather: no significant weather observed at this time

METAR text: UTSB 161630Z 01008KT CAVOK 26/04 Q1009 R01/CLRD70 NOSIG
Conditions at: UTSB (BUKHARA , UZ) observed 1630 UTC 16 June 2019
Temperature: 26.0°C (79°F)
Dewpoint: 4.0°C (39°F) [RH = 24%]
Pressure (altimeter): 29.79 inches Hg (1009.0 mb)
Winds: from the N (10 degrees) at 9 MPH (8 knots; 4.1 m/s)
Visibility: 6 or more miles (10+ km)
Ceiling: ceiling and visibility are OK
Clouds: unknown
Weather: no significant weather observed at this time

METAR text: UTSB 161600Z 36008KT CAVOK 26/06 Q1009 R01/CLRD70 NOSIG
Conditions at: UTSB (BUKHARA , UZ) observed 1600 UTC 16 June 2019
Temperature: 26.0°C (79°F)
Dewpoint: 6.0°C (43°F) [RH = 28%]
Pressure (altimeter): 29.79 inches Hg (1009.0 mb)
Winds: from the N (360 degrees) at 9 MPH (8 knots; 4.1 m/s)
Visibility: 6 or more miles (10+ km)
Ceiling: ceiling and visibility are OK
Clouds: unknown
Weather: no significant weather observed at this time

METAR text: UTSB 161530Z 36004KT CAVOK 29/08 Q1008 R01/CLRD70 NOSIG
Conditions at: UTSB (BUKHARA , UZ) observed 1530 UTC 16 June 2019
Temperature: 29.0°C (84°F)
Dewpoint: 8.0°C (46°F) [RH = 27%]
Pressure (altimeter): 29.76 inches Hg (1008.0 mb)
Winds: from the N (360 degrees) at 5 MPH (4 knots; 2.1 m/s)
Visibility: 6 or more miles (10+ km)
Ceiling: ceiling and visibility are OK
Clouds: unknown
Weather: no significant weather observed at this time

METAR text: UTSB 161500Z 03004KT CAVOK 30/08 Q1008 R01/CLRD70 NOSIG
Conditions at: UTSB (BUKHARA , UZ) observed 1500 UTC 16 June 2019
Temperature: 30.0°C (86°F)
Dewpoint: 8.0°C (46°F) [RH = 25%]
Pressure (altimeter): 29.76 inches Hg (1008.0 mb)
Winds: from the NNE (30 degrees) at 5 MPH (4 knots; 2.1 m/s)
Visibility: 6 or more miles (10+ km)
Ceiling: ceiling and visibility are OK
Clouds: unknown
Weather: no significant weather observed at this time

METAR text: UTSB 161430Z 36006KT CAVOK 32/06 Q1008 R01/CLRD70 NOSIG
Conditions at: UTSB (BUKHARA , UZ) observed 1430 UTC 16 June 2019
Temperature: 32.0°C (90°F)
Dewpoint: 6.0°C (43°F) [RH = 20%]
Pressure (altimeter): 29.76 inches Hg (1008.0 mb)
Winds: from the N (360 degrees) at 7 MPH (6 knots; 3.1 m/s)
Visibility: 6 or more miles (10+ km)
Ceiling: ceiling and visibility are OK
Clouds: unknown
Weather: no significant weather observed at this time

METAR text: UTSB 161400Z 33004KT 300V030 CAVOK 34/02 Q1008 R01/CLRD70 NOSIG
Conditions at: UTSB (BUKHARA , UZ) observed 1400 UTC 16 June 2019
Temperature: 34.0°C (93°F)
Dewpoint: 2.0°C (36°F) [RH = 13%]
Pressure (altimeter): 29.76 inches Hg (1008.0 mb)
Winds: from the NNW (330 degrees) at 5 MPH (4 knots; 2.1 m/s)
Visibility: 6 or more miles (10+ km)
Ceiling: ceiling and visibility are OK
Clouds: unknown
Weather: no significant weather observed at this time

METAR text: UTSB 161330Z 34006KT CAVOK 34/02 Q1008 R01/CLRD70 NOSIG
Conditions at: UTSB (BUKHARA , UZ) observed 1330 UTC 16 June 2019
Temperature: 34.0°C (93°F)
Dewpoint: 2.0°C (36°F) [RH = 13%]
Pressure (altimeter): 29.76 inches Hg (1008.0 mb)
Winds: from the NNW (340 degrees) at 7 MPH (6 knots; 3.1 m/s)
Visibility: 6 or more miles (10+ km)
Ceiling: ceiling and visibility are OK
Clouds: unknown
Weather: no significant weather observed at this time

METAR text: UTSB 161300Z 32008KT 280V340 CAVOK 34/02 Q1008 R01/CLRD70 NOSIG
Conditions at: UTSB (BUKHARA , UZ) observed 1300 UTC 16 June 2019
Temperature: 34.0°C (93°F)
Dewpoint: 2.0°C (36°F) [RH = 13%]
Pressure (altimeter): 29.76 inches Hg (1008.0 mb)
Winds: from the NW (320 degrees) at 9 MPH (8 knots; 4.1 m/s)
Visibility: 6 or more miles (10+ km)
Ceiling: ceiling and visibility are OK
Clouds: unknown
Weather: no significant weather observed at this time

METAR text: UTSB 161230Z 34006KT CAVOK 35/02 Q1008 R01/CLRD70 NOSIG
Conditions at: UTSB (BUKHARA , UZ) observed 1230 UTC 16 June 2019
Temperature: 35.0°C (95°F)
Dewpoint: 2.0°C (36°F) [RH = 13%]
Pressure (altimeter): 29.76 inches Hg (1008.0 mb)
Winds: from the NNW (340 degrees) at 7 MPH (6 knots; 3.1 m/s)
Visibility: 6 or more miles (10+ km)
Ceiling: ceiling and visibility are OK
Clouds: unknown
Weather: no significant weather observed at this time

METAR text: UTSB 161200Z 01006KT 320V040 CAVOK 35/02 Q1008 R01/CLRD70 NOSIG
Conditions at: UTSB (BUKHARA , UZ) observed 1200 UTC 16 June 2019
Temperature: 35.0°C (95°F)
Dewpoint: 2.0°C (36°F) [RH = 13%]
Pressure (altimeter): 29.76 inches Hg (1008.0 mb)
Winds: from the N (10 degrees) at 7 MPH (6 knots; 3.1 m/s)
Visibility: 6 or more miles (10+ km)
Ceiling: ceiling and visibility are OK
Clouds: unknown
Weather: no significant weather observed at this time

METAR text: UTSB 161130Z 34010KT CAVOK 35/01 Q1009 R01/CLRD70 NOSIG
Conditions at: UTSB (BUKHARA , UZ) observed 1130 UTC 16 June 2019
Temperature: 35.0°C (95°F)
Dewpoint: 1.0°C (34°F) [RH = 12%]
Pressure (altimeter): 29.79 inches Hg (1009.0 mb)
Winds: from the NNW (340 degrees) at 12 MPH (10 knots; 5.1 m/s)
Visibility: 6 or more miles (10+ km)
Ceiling: ceiling and visibility are OK
Clouds: unknown
Weather: no significant weather observed at this time

METAR text: UTSB 161100Z 32010KT 240V350 CAVOK 34/M00 Q1009 R01/CLRD70 NOSIG
Conditions at: UTSB (BUKHARA , UZ) observed 1100 UTC 16 June 2019
Temperature: 34.0°C (93°F)
Dewpoint: 0.0°C (32°F) [RH = 11%]
Pressure (altimeter): 29.79 inches Hg (1009.0 mb)
Winds: from the NW (320 degrees) at 12 MPH (10 knots; 5.1 m/s)
Visibility: 6 or more miles (10+ km)
Ceiling: ceiling and visibility are OK
Clouds: unknown
Weather: no significant weather observed at this time

METAR text: UTSB 161030Z 34010KT 280V360 CAVOK 34/01 Q1009 R01/CLRD70 NOSIG
Conditions at: UTSB (BUKHARA , UZ) observed 1030 UTC 16 June 2019
Temperature: 34.0°C (93°F)
Dewpoint: 1.0°C (34°F) [RH = 12%]
Pressure (altimeter): 29.79 inches Hg (1009.0 mb)
Winds: from the NNW (340 degrees) at 12 MPH (10 knots; 5.1 m/s)
Visibility: 6 or more miles (10+ km)
Ceiling: ceiling and visibility are OK
Clouds: unknown
Weather: no significant weather observed at this time

METAR text: UTSB 161000Z 31012KT CAVOK 34/01 Q1009 R01/CLRD70 NOSIG
Conditions at: UTSB (BUKHARA , UZ) observed 1000 UTC 16 June 2019
Temperature: 34.0°C (93°F)
Dewpoint: 1.0°C (34°F) [RH = 12%]
Pressure (altimeter): 29.79 inches Hg (1009.0 mb)
Winds: from the NW (310 degrees) at 14 MPH (12 knots; 6.2 m/s)
Visibility: 6 or more miles (10+ km)
Ceiling: ceiling and visibility are OK
Clouds: unknown
Weather: no significant weather observed at this time

METAR text: UTSB 160930Z 32010KT 290V350 CAVOK 34/02 Q1009 R01/CLRD70 NOSIG
Conditions at: UTSB (BUKHARA , UZ) observed 0930 UTC 16 June 2019
Temperature: 34.0°C (93°F)
Dewpoint: 2.0°C (36°F) [RH = 13%]
Pressure (altimeter): 29.79 inches Hg (1009.0 mb)
Winds: from the NW (320 degrees) at 12 MPH (10 knots; 5.1 m/s)
Visibility: 6 or more miles (10+ km)
Ceiling: ceiling and visibility are OK
Clouds: unknown
Weather: no significant weather observed at this time

METAR text: UTSB 160900Z 29010KT 260V330 CAVOK 34/01 Q1009 R01/CLRD70 NOSIG
Conditions at: UTSB (BUKHARA , UZ) observed 0900 UTC 16 June 2019
Temperature: 34.0°C (93°F)
Dewpoint: 1.0°C (34°F) [RH = 12%]
Pressure (altimeter): 29.79 inches Hg (1009.0 mb)
Winds: from the WNW (290 degrees) at 12 MPH (10 knots; 5.1 m/s)
Visibility: 6 or more miles (10+ km)
Ceiling: ceiling and visibility are OK
Clouds: unknown
Weather: no significant weather observed at this time

METAR text: UTSB 160830Z 31008KT 280V350 CAVOK 34/01 Q1009 R01/CLRD70 NOSIG
Conditions at: UTSB (BUKHARA , UZ) observed 0830 UTC 16 June 2019
Temperature: 34.0°C (93°F)
Dewpoint: 1.0°C (34°F) [RH = 12%]
Pressure (altimeter): 29.79 inches Hg (1009.0 mb)
Winds: from the NW (310 degrees) at 9 MPH (8 knots; 4.1 m/s)
Visibility: 6 or more miles (10+ km)
Ceiling: ceiling and visibility are OK
Clouds: unknown
Weather: no significant weather observed at this time

METAR text: UTSB 160800Z 31010KT 280V350 CAVOK 33/M00 Q1009 R01/CLRD70 NOSIG
Conditions at: UTSB (BUKHARA , UZ) observed 0800 UTC 16 June 2019
Temperature: 33.0°C (91°F)
Dewpoint: 0.0°C (32°F) [RH = 12%]
Pressure (altimeter): 29.79 inches Hg (1009.0 mb)
Winds: from the NW (310 degrees) at 12 MPH (10 knots; 5.1 m/s)
Visibility: 6 or more miles (10+ km)
Ceiling: ceiling and visibility are OK
Clouds: unknown
Weather: no significant weather observed at this time

METAR text: UTSB 160730Z 33012KT CAVOK 33/01 Q1010 R01/CLRD70 NOSIG
Conditions at: UTSB (BUKHARA , UZ) observed 0730 UTC 16 June 2019
Temperature: 33.0°C (91°F)
Dewpoint: 1.0°C (34°F) [RH = 13%]
Pressure (altimeter): 29.82 inches Hg (1010.0 mb)
Winds: from the NNW (330 degrees) at 14 MPH (12 knots; 6.2 m/s)
Visibility: 6 or more miles (10+ km)
Ceiling: ceiling and visibility are OK
Clouds: unknown
Weather: no significant weather observed at this time

METAR text: UTSB 160700Z 32010KT CAVOK 32/01 Q1010 R01/CLRD70 NOSIG
Conditions at: UTSB (BUKHARA , UZ) observed 0700 UTC 16 June 2019
Temperature: 32.0°C (90°F)
Dewpoint: 1.0°C (34°F) [RH = 14%]
Pressure (altimeter): 29.82 inches Hg (1010.0 mb)
Winds: from the NW (320 degrees) at 12 MPH (10 knots; 5.1 m/s)
Visibility: 6 or more miles (10+ km)
Ceiling: ceiling and visibility are OK
Clouds: unknown
Weather: no significant weather observed at this time

METAR text: UTSB 160630Z 27008KT 220V320 CAVOK 32/01 Q1010 R01/CLRD70 NOSIG
Conditions at: UTSB (BUKHARA , UZ) observed 0630 UTC 16 June 2019
Temperature: 32.0°C (90°F)
Dewpoint: 1.0°C (34°F) [RH = 14%]
Pressure (altimeter): 29.82 inches Hg (1010.0 mb)
Winds: from the W (270 degrees) at 9 MPH (8 knots; 4.1 m/s)
Visibility: 6 or more miles (10+ km)
Ceiling: ceiling and visibility are OK
Clouds: unknown
Weather: no significant weather observed at this time

METAR text: UTSB 160600Z 25008KT 200V320 CAVOK 31/01 Q1010 R01/CLRD70 NOSIG
Conditions at: UTSB (BUKHARA , UZ) observed 0600 UTC 16 June 2019
Temperature: 31.0°C (88°F)
Dewpoint: 1.0°C (34°F) [RH = 15%]
Pressure (altimeter): 29.82 inches Hg (1010.0 mb)
Winds: from the WSW (250 degrees) at 9 MPH (8 knots; 4.1 m/s)
Visibility: 6 or more miles (10+ km)
Ceiling: ceiling and visibility are OK
Clouds: unknown
Weather: no significant weather observed at this time

METAR text: UTSB 160530Z 28008KT 200V320 CAVOK 31/00 Q1010 R01/CLRD70 NOSIG
Conditions at: UTSB (BUKHARA , UZ) observed 0530 UTC 16 June 2019
Temperature: 31.0°C (88°F)
Dewpoint: 0.0°C (32°F) [RH = 14%]
Pressure (altimeter): 29.82 inches Hg (1010.0 mb)
Winds: from the W (280 degrees) at 9 MPH (8 knots; 4.1 m/s)
Visibility: 6 or more miles (10+ km)
Ceiling: ceiling and visibility are OK
Clouds: unknown
Weather: no significant weather observed at this time

METAR text: UTSB 160500Z 29010KT 260V320 CAVOK 31/02 Q1010 R19/CLRD70 NOSIG
Conditions at: UTSB (BUKHARA , UZ) observed 0500 UTC 16 June 2019
Temperature: 31.0°C (88°F)
Dewpoint: 2.0°C (36°F) [RH = 16%]
Pressure (altimeter): 29.82 inches Hg (1010.0 mb)
Winds: from the WNW (290 degrees) at 12 MPH (10 knots; 5.1 m/s)
Visibility: 6 or more miles (10+ km)
Ceiling: ceiling and visibility are OK
Clouds: unknown
Weather: no significant weather observed at this time

METAR text: UTSB 160430Z 22006KT 180V270 CAVOK 31/M02 Q1010 R01/CLRD70 NOSIG
Conditions at: UTSB (BUKHARA , UZ) observed 0430 UTC 16 June 2019
Temperature: 31.0°C (88°F)
Dewpoint: -2.0°C (28°F) [RH = 12%]
Pressure (altimeter): 29.82 inches Hg (1010.0 mb)
Winds: from the SW (220 degrees) at 7 MPH (6 knots; 3.1 m/s)
Visibility: 6 or more miles (10+ km)
Ceiling: ceiling and visibility are OK
Clouds: unknown
Weather: no significant weather observed at this time

METAR text: UTSB 160400Z 19006KT CAVOK 31/03 Q1010 R01/CLRD70 NOSIG
Conditions at: UTSB (BUKHARA , UZ) observed 0400 UTC 16 June 2019
Temperature: 31.0°C (88°F)
Dewpoint: 3.0°C (37°F) [RH = 17%]
Pressure (altimeter): 29.82 inches Hg (1010.0 mb)
Winds: from the S (190 degrees) at 7 MPH (6 knots; 3.1 m/s)
Visibility: 6 or more miles (10+ km)
Ceiling: ceiling and visibility are OK
Clouds: unknown
Weather: no significant weather observed at this time

METAR text: UTSB 160330Z 21004KT 170V250 CAVOK 29/02 Q1010 R01/CLRD70 NOSIG
Conditions at: UTSB (BUKHARA , UZ) observed 0330 UTC 16 June 2019
Temperature: 29.0°C (84°F)
Dewpoint: 2.0°C (36°F) [RH = 18%]
Pressure (altimeter): 29.82 inches Hg (1010.0 mb)
Winds: from the SSW (210 degrees) at 5 MPH (4 knots; 2.1 m/s)
Visibility: 6 or more miles (10+ km)
Ceiling: ceiling and visibility are OK
Clouds: unknown
Weather: no significant weather observed at this time

METAR text: UTSB 160300Z 00000KT CAVOK 28/04 Q1010 R01/CLRD70 NOSIG
Conditions at: UTSB (BUKHARA , UZ) observed 0300 UTC 16 June 2019
Temperature: 28.0°C (82°F)
Dewpoint: 4.0°C (39°F) [RH = 22%]
Pressure (altimeter): 29.82 inches Hg (1010.0 mb)
Winds: calm
Visibility: 6 or more miles (10+ km)
Ceiling: ceiling and visibility are OK
Clouds: unknown
Weather: no significant weather observed at this time

METAR text: UTSB 160230Z 34002KT CAVOK 25/05 Q1010 R01/CLRD70 NOSIG
Conditions at: UTSB (BUKHARA , UZ) observed 0230 UTC 16 June 2019
Temperature: 25.0°C (77°F)
Dewpoint: 5.0°C (41°F) [RH = 28%]
Pressure (altimeter): 29.82 inches Hg (1010.0 mb)
Winds: from the NNW (340 degrees) at 2 MPH (2 knots; 1.0 m/s)
Visibility: 6 or more miles (10+ km)
Ceiling: ceiling and visibility are OK
Clouds: unknown
Weather: no significant weather observed at this time

METAR text: UTSB 160200Z 34004KT CAVOK 22/05 Q1010 R01/CLRD70 NOSIG
Conditions at: UTSB (BUKHARA , UZ) observed 0200 UTC 16 June 2019
Temperature: 22.0°C (72°F)
Dewpoint: 5.0°C (41°F) [RH = 33%]
Pressure (altimeter): 29.82 inches Hg (1010.0 mb)
Winds: from the NNW (340 degrees) at 5 MPH (4 knots; 2.1 m/s)
Visibility: 6 or more miles (10+ km)
Ceiling: ceiling and visibility are OK
Clouds: unknown
Weather: no significant weather observed at this time

METAR text: UTSB 160130Z 32006KT CAVOK 22/03 Q1010 R01/CLRD70 NOSIG
Conditions at: UTSB (BUKHARA , UZ) observed 0130 UTC 16 June 2019
Temperature: 22.0°C (72°F)
Dewpoint: 3.0°C (37°F) [RH = 29%]
Pressure (altimeter): 29.82 inches Hg (1010.0 mb)
Winds: from the NW (320 degrees) at 7 MPH (6 knots; 3.1 m/s)
Visibility: 6 or more miles (10+ km)
Ceiling: ceiling and visibility are OK
Clouds: unknown
Weather: no significant weather observed at this time

METAR text: UTSB 160100Z 33006KT CAVOK 21/04 Q1009 R01/CLRD70 NOSIG
Conditions at: UTSB (BUKHARA , UZ) observed 0100 UTC 16 June 2019
Temperature: 21.0°C (70°F)
Dewpoint: 4.0°C (39°F) [RH = 33%]
Pressure (altimeter): 29.79 inches Hg (1009.0 mb)
Winds: from the NNW (330 degrees) at 7 MPH (6 knots; 3.1 m/s)
Visibility: 6 or more miles (10+ km)
Ceiling: ceiling and visibility are OK
Clouds: unknown
Weather: no significant weather observed at this time

METAR text: UTSB 160030Z 31004KT CAVOK 21/05 Q1009 R01/CLRD70 NOSIG
Conditions at: UTSB (BUKHARA , UZ) observed 0030 UTC 16 June 2019
Temperature: 21.0°C (70°F)
Dewpoint: 5.0°C (41°F) [RH = 35%]
Pressure (altimeter): 29.79 inches Hg (1009.0 mb)
Winds: from the NW (310 degrees) at 5 MPH (4 knots; 2.1 m/s)
Visibility: 6 or more miles (10+ km)
Ceiling: ceiling and visibility are OK
Clouds: unknown
Weather: no significant weather observed at this time

METAR text: UTSB 160000Z 30006KT CAVOK 22/04 Q1009 R01/CLRD70 NOSIG
Conditions at: UTSB (BUKHARA , UZ) observed 0000 UTC 16 June 2019
Temperature: 22.0°C (72°F)
Dewpoint: 4.0°C (39°F) [RH = 31%]
Pressure (altimeter): 29.79 inches Hg (1009.0 mb)
Winds: from the WNW (300 degrees) at 7 MPH (6 knots; 3.1 m/s)
Visibility: 6 or more miles (10+ km)
Ceiling: ceiling and visibility are OK
Clouds: unknown
Weather: no significant weather observed at this time

METAR text: UTSB 152330Z 30006KT CAVOK 22/04 Q1009 R01/CLRD70 NOSIG
Conditions at: UTSB (BUKHARA , UZ) observed 2330 UTC 15 June 2019
Temperature: 22.0°C (72°F)
Dewpoint: 4.0°C (39°F) [RH = 31%]
Pressure (altimeter): 29.79 inches Hg (1009.0 mb)
Winds: from the WNW (300 degrees) at 7 MPH (6 knots; 3.1 m/s)
Visibility: 6 or more miles (10+ km)
Ceiling: ceiling and visibility are OK
Clouds: unknown
Weather: no significant weather observed at this time

Forecast for: UTSB (BUKHARA , UZ)
Text: TAF UTSB 171100Z 1712/1812 VRB03KT 7000 NSC TX35/1810Z
Forecast period: 1200 UTC 17 June 2019 to 1200 UTC 18 June 2019
Forecast type: FROM: standard forecast or significant change
Winds: variable direction winds at 3 MPH (3 knots; 1.5 m/s)
Visibility: 4 miles (7 km)
Ceiling: unknown
Clouds: missing
Weather: no significant weather forecast for this period
Text: TEMPO 1712/1723 35010KT
Forecast period: 1200 to 2300 UTC 17 June 2019
Forecast type: TEMPORARY: The following changes expected for less than half the time period
Winds: from the N (350 degrees) at 12 MPH (10 knots; 5.1 m/s)
Visibility: missing
Ceiling: unknown
Clouds: missing
Weather: no significant weather forecast for this period